Millville Municipal Airport
KMIV : now visible

Airfield :











YOU CAN JOIN US ON...

 
LOGIN :

Register | Disclaimer

   EN    FR    IT 

 









Legend :    VFR   Marginal VFR   IFR   Intensive IFR   Very Intensive IFR
Visi :
Ceiling :
>= 8 km
>= 3000ft
5 to 8 km
1000 to 3000 ft
1500m to 5 km
500 to 1000 ft
800 to 1500m
200 to 500 ft
< 800m
< 200 ft
Symbols :   Thunderstorms  Fog  Heavy snow  Heavy precipitations  Wind > 20 kt






- Airport Elevation : 85 ft


KMIV - Millville Municipal

CURRENT METAR :
  • 110554Z AUTO 00000KT 10SM CLR 23/22 A3000 RMK AO2 SLP156 T02330217 10267 20228 56003

EXPIRED METARs :
  • 110454Z AUTO 00000KT 10SM CLR 24/22 A3000 RMK AO2 SLP157 T02390222 403220222
  • 110354Z AUTO 00000KT 10SM CLR 24/23 A3000 RMK AO2 SLP157 T02440228

TAF KMIV
Valid from the 11 at 06:00 until the 12 at 06:00 UTC


110524Z 1106/1206 VRB05KT P6SM FEW200
TEMPO 1108/1111 2SM BR
FM111300 18006KT P6SM FEW050
FM111900 18012KT P6SM SCT050
KZDC FIR / North America



MET'MAP, your aeronautical weather chart ! - Copyright ORBIFLY December 2007 - Disclaimer

ORBIFLY MET'MAP TEAM :

Programming & Development : Alexandra Zaïnal
Concept & original design : Baudouin d'Aumeries
Assistance for programming : Marc-Olivier Méhu
Technical & hardware support : Manuel Goepfert

Contact : metmap@orbifly.com




SOURCES & CREDITS :

   NOAA       Earth
Advisory